createdAt,value
2022-11-05T00:02:31.194Z,7.81
2022-11-05T00:05:16.568Z,7.97
2022-11-05T00:08:07.836Z,8.01
2022-11-05T00:10:38.308Z,7.97
2022-11-05T00:13:25.729Z,7.93
2022-11-05T00:16:11.645Z,7.79
2022-11-05T00:18:39.641Z,7.81
2022-11-05T00:21:28.039Z,7.89
2022-11-05T00:24:14.623Z,8.01
2022-11-05T00:26:42.494Z,7.98
2022-11-05T00:29:10.154Z,7.92
2022-11-05T00:31:37.839Z,7.93
2022-11-05T00:34:05.682Z,7.77
2022-11-05T00:36:33.443Z,7.96
2022-11-05T00:39:02.637Z,8.01
2022-11-05T00:41:30.317Z,8.02
2022-11-05T00:44:15.507Z,8.02
2022-11-05T00:46:43.233Z,7.96
2022-11-05T00:49:28.610Z,7.84
2022-11-05T00:52:17.076Z,7.76
2022-11-05T00:54:46.273Z,7.78
2022-11-05T00:57:13.927Z,7.98
2022-11-05T00:59:41.636Z,7.97
2022-11-05T01:02:09.593Z,8.04
2022-11-05T01:04:37.388Z,8.01
2022-11-05T01:07:05.167Z,8.02
2022-11-05T01:09:32.881Z,7.96
2022-11-05T01:12:01.933Z,8.01
2022-11-05T01:14:29.683Z,7.97
2022-11-05T01:16:57.402Z,7.92
2022-11-05T01:19:25.085Z,7.96
2022-11-05T01:21:52.822Z,7.99
2022-11-05T01:24:20.507Z,7.93
2022-11-05T01:26:48.161Z,7.93
2022-11-05T01:29:17.255Z,7.93
2022-11-05T01:31:45.044Z,7.77
2022-11-05T01:34:12.902Z,7.95
2022-11-05T01:36:40.677Z,8.12
2022-11-05T01:39:08.354Z,8.06
2022-11-05T01:41:36.144Z,8.11
2022-11-05T01:44:03.931Z,8.13
2022-11-05T01:46:37.633Z,8.06
2022-11-05T01:49:11.601Z,8.06
2022-11-05T01:51:40.662Z,8.14
2022-11-05T01:54:13.402Z,8.09
2022-11-05T01:56:45.118Z,8.14
2022-11-05T01:59:16.113Z,8.14
2022-11-05T02:01:45.538Z,8.15
2022-11-05T02:04:17.983Z,8.23
2022-11-05T02:06:47.045Z,8.21
2022-11-05T02:09:21.779Z,8.21
2022-11-05T02:11:50.901Z,8.04
2022-11-05T02:14:19.313Z,8.03
2022-11-05T02:16:54.422Z,8.16
2022-11-05T02:19:52.835Z,8.12
2022-11-05T02:22:43.139Z,8.10
2022-11-05T02:25:33.754Z,8.14
2022-11-05T02:28:25.449Z,8.18
2022-11-05T02:31:01.039Z,8.16
2022-11-05T02:33:37.433Z,8.19
2022-11-05T02:36:22.130Z,8.18
2022-11-05T02:38:57.315Z,8.17
2022-11-05T02:41:31.598Z,8.14
2022-11-05T02:44:10.111Z,8.10
2022-11-05T02:46:47.908Z,7.98
2022-11-05T02:49:27.810Z,8.11
2022-11-05T02:51:59.234Z,8.01
2022-11-05T02:54:34.117Z,8.19
2022-11-05T02:57:04.682Z,8.22
2022-11-05T02:59:32.658Z,8.20
2022-11-05T03:02:04.244Z,8.05
2022-11-05T03:04:33.190Z,8.16
2022-11-05T03:07:22.252Z,8.03
2022-11-05T03:10:10.971Z,8.07
2022-11-05T03:12:48.511Z,7.99
2022-11-05T03:15:27.763Z,8.09
2022-11-05T03:18:05.488Z,8.17
2022-11-05T03:20:38.785Z,8.10
2022-11-05T03:23:13.007Z,8.15
2022-11-05T03:25:46.984Z,8.15
2022-11-05T03:28:16.139Z,8.13
2022-11-05T03:30:45.374Z,8.19
2022-11-05T03:33:18.860Z,8.16
2022-11-05T03:35:52.047Z,8.21
2022-11-05T03:38:26.236Z,8.22
2022-11-05T03:40:58.541Z,8.21
2022-11-05T03:43:31.378Z,8.25
2022-11-05T03:46:03.553Z,8.15
2022-11-05T03:48:33.833Z,8.18
2022-11-05T03:51:07.478Z,8.26
2022-11-05T03:53:39.212Z,8.25
2022-11-05T03:56:11.324Z,8.11
2022-11-05T03:58:42.824Z,8.16
2022-11-05T04:01:10.914Z,8.17
2022-11-05T04:03:40.110Z,8.08
2022-11-05T04:06:27.558Z,8.07
2022-11-05T04:09:13.075Z,8.03
2022-11-05T04:11:58.707Z,8.05
2022-11-05T04:14:27.101Z,8.00
2022-11-05T04:17:09.800Z,8.05
2022-11-05T04:19:57.915Z,7.97
2022-11-05T04:22:44.771Z,8.06
2022-11-05T04:25:13.546Z,8.01
2022-11-05T04:27:41.412Z,7.82
2022-11-05T04:30:21.547Z,7.85
2022-11-05T04:33:04.961Z,7.98
2022-11-05T04:35:37.198Z,7.92
2022-11-05T04:38:05.917Z,7.85
2022-11-05T04:40:34.433Z,7.84
2022-11-05T04:43:02.762Z,7.86
2022-11-05T04:45:33.110Z,7.96
2022-11-05T04:48:01.165Z,7.92
2022-11-05T04:50:29.429Z,7.99
2022-11-05T04:52:58.794Z,8.01
2022-11-05T04:55:27.197Z,8.00
2022-11-05T04:57:56.025Z,7.91
2022-11-05T05:00:24.969Z,7.83
2022-11-05T05:02:53.127Z,7.95
2022-11-05T05:05:21.961Z,7.87
2022-11-05T05:07:49.733Z,7.78
2022-11-05T05:10:19.568Z,7.82
2022-11-05T05:12:48.438Z,7.78
2022-11-05T05:15:16.348Z,7.72
2022-11-05T05:17:44.114Z,7.77
2022-11-05T05:20:29.311Z,7.62
2022-11-05T05:22:57.186Z,7.73
2022-11-05T05:25:26.382Z,7.60
2022-11-05T05:27:54.231Z,7.73
2022-11-05T05:30:22.059Z,7.47
2022-11-05T05:32:49.827Z,7.74
2022-11-05T05:35:17.834Z,7.77
2022-11-05T05:37:45.595Z,7.55
2022-11-05T05:40:13.473Z,7.70
2022-11-05T05:42:43.569Z,7.66
2022-11-05T05:45:12.516Z,7.31
2022-11-05T05:47:40.352Z,7.65
2022-11-05T05:50:08.533Z,7.57
2022-11-05T05:52:36.317Z,7.76
2022-11-05T05:55:04.080Z,7.71
2022-11-05T05:57:31.843Z,7.68
2022-11-05T06:00:01.946Z,7.54
2022-11-05T06:02:31.515Z,7.44
2022-11-05T06:04:59.450Z,7.05
2022-11-05T06:07:27.185Z,7.70
2022-11-05T06:09:54.979Z,7.66
2022-11-05T06:12:22.801Z,7.72
2022-11-05T06:14:50.635Z,7.79
2022-11-05T06:17:19.809Z,7.57
2022-11-05T06:19:47.852Z,7.66
2022-11-05T06:22:16.021Z,7.69
2022-11-05T06:24:43.794Z,7.46
2022-11-05T06:27:11.603Z,7.64
2022-11-05T06:29:39.579Z,7.71
2022-11-05T06:32:07.406Z,7.61
2022-11-05T06:34:36.904Z,6.55
2022-11-05T06:37:04.694Z,7.54
2022-11-05T06:39:32.382Z,7.66
2022-11-05T06:44:48.165Z,7.81
2022-11-05T06:47:16.074Z,7.69
2022-11-05T06:49:45.317Z,7.69
2022-11-05T06:52:14.050Z,7.39
2022-11-05T06:54:42.910Z,7.50
2022-11-05T06:57:11.631Z,7.61
2022-11-05T06:59:40.240Z,7.37
2022-11-05T07:02:08.700Z,7.63
2022-11-05T07:04:36.670Z,7.51
2022-11-05T07:07:05.795Z,7.53
2022-11-05T07:09:33.544Z,7.47
2022-11-05T07:12:01.350Z,7.55
2022-11-05T07:14:29.209Z,7.48
2022-11-05T07:16:58.209Z,7.66
2022-11-05T07:19:25.980Z,7.68
2022-11-05T07:21:53.844Z,7.50
2022-11-05T07:24:23.038Z,7.35
2022-11-05T07:26:50.774Z,7.49
2022-11-05T07:29:18.564Z,7.70
2022-11-05T07:31:47.320Z,7.65
2022-11-05T07:34:15.483Z,7.51
2022-11-05T07:36:43.260Z,7.37
2022-11-05T07:39:11.055Z,7.39
2022-11-05T07:41:40.438Z,7.43
2022-11-05T07:44:08.379Z,7.49
2022-11-05T07:46:36.122Z,7.55
2022-11-05T07:49:04.089Z,7.35
2022-11-05T07:51:31.873Z,7.65
2022-11-05T07:53:59.633Z,7.77
2022-11-05T07:56:27.436Z,7.83
2022-11-05T07:58:56.557Z,7.86
2022-11-05T08:01:24.648Z,7.84
2022-11-05T08:03:52.545Z,7.72
2022-11-05T08:06:20.428Z,7.62
2022-11-05T08:08:48.268Z,7.83
2022-11-05T08:11:16.061Z,7.78
2022-11-05T08:13:44.061Z,7.78
2022-11-05T08:16:13.258Z,7.76
2022-11-05T08:18:41.028Z,7.62
2022-11-05T08:21:09.553Z,7.65
2022-11-05T08:23:38.659Z,7.64
2022-11-05T08:26:07.009Z,7.92
2022-11-05T08:28:34.802Z,7.84
2022-11-05T08:31:02.595Z,7.74
2022-11-05T08:33:33.137Z,7.71
2022-11-05T08:36:03.918Z,7.72
2022-11-05T08:38:31.838Z,7.94
2022-11-05T08:41:00.488Z,7.92
2022-11-05T08:43:30.937Z,7.99
2022-11-05T08:46:01.206Z,7.96
2022-11-05T08:48:28.971Z,7.96
2022-11-05T08:51:01.264Z,8.03
2022-11-05T08:53:29.283Z,8.17
2022-11-05T08:55:59.235Z,8.21
2022-11-05T08:58:27.058Z,8.37
2022-11-05T09:00:57.830Z,8.51
2022-11-05T09:03:28.414Z,8.47
2022-11-05T09:05:56.113Z,8.54
2022-11-05T09:08:25.167Z,8.50
2022-11-05T09:10:52.863Z,8.69
2022-11-05T09:13:20.819Z,8.63
2022-11-05T09:15:49.134Z,8.78
2022-11-05T09:18:18.288Z,8.82
2022-11-05T09:20:46.076Z,8.98
2022-11-05T09:23:15.803Z,8.92
2022-11-05T09:25:45.488Z,8.75
2022-11-05T09:28:17.018Z,8.93
2022-11-05T09:30:46.743Z,8.96
2022-11-05T09:33:14.944Z,8.86
2022-11-05T09:35:43.670Z,9.07
2022-11-05T09:38:11.454Z,9.02
2022-11-05T09:40:56.629Z,9.13
2022-11-05T09:43:31.719Z,8.89
2022-11-05T09:46:03.349Z,9.14
2022-11-05T09:48:34.463Z,9.33
2022-11-05T09:51:02.416Z,9.42
2022-11-05T09:53:30.134Z,9.35
2022-11-05T09:56:01.566Z,9.32
2022-11-05T09:58:39.938Z,9.18
2022-11-05T10:01:13.410Z,9.38
2022-11-05T10:03:46.636Z,8.90
2022-11-05T10:06:20.644Z,9.13
2022-11-05T10:08:52.675Z,9.35
2022-11-05T10:11:25.983Z,9.18
2022-11-05T10:13:57.610Z,9.15
2022-11-05T10:16:28.410Z,9.38
2022-11-05T10:19:02.063Z,9.43
2022-11-05T10:21:59.395Z,9.82
2022-11-05T10:24:19.974Z,9.63
2022-11-05T10:26:51.587Z,9.52
2022-11-05T10:29:26.770Z,9.88
2022-11-05T10:31:56.028Z,10.27
2022-11-05T10:34:26.493Z,10.91
2022-11-05T10:36:54.502Z,11.17
2022-11-05T10:39:23.479Z,11.33
2022-11-05T10:42:07.942Z,10.90
2022-11-05T10:44:40.577Z,10.88
2022-11-05T10:47:33.597Z,10.51
2022-11-05T10:50:02.533Z,10.27
2022-11-05T10:52:35.243Z,10.47
2022-11-05T10:55:06.153Z,10.89
2022-11-05T10:57:37.902Z,10.77
2022-11-05T11:00:28.808Z,10.60
2022-11-05T11:02:59.614Z,11.11
2022-11-05T11:05:30.783Z,10.62
2022-11-05T11:08:02.291Z,10.58
2022-11-05T11:10:33.802Z,10.85
2022-11-05T11:13:03.321Z,10.80
2022-11-05T11:15:35.103Z,11.16
2022-11-05T11:18:27.031Z,11.12
2022-11-05T11:20:54.867Z,11.09
2022-11-05T11:23:22.671Z,11.13
2022-11-05T11:25:53.942Z,10.93
2022-11-05T11:28:33.917Z,10.55
2022-11-05T11:31:06.827Z,10.21
2022-11-05T11:33:36.014Z,10.25
2022-11-05T11:36:04.050Z,10.36
2022-11-05T11:38:34.491Z,10.17
2022-11-05T11:41:13.820Z,10.49
2022-11-05T11:43:44.135Z,10.32
2022-11-05T11:46:16.088Z,10.37
2022-11-05T11:48:47.441Z,10.44
2022-11-05T11:51:32.267Z,10.39
2022-11-05T11:54:01.828Z,10.51
2022-11-05T11:56:30.407Z,10.26
2022-11-05T11:59:03.973Z,10.53
2022-11-05T12:01:55.231Z,10.44
2022-11-05T12:04:38.507Z,10.41
2022-11-05T12:07:15.169Z,10.50
2022-11-05T12:09:57.187Z,10.37
2022-11-05T12:12:33.149Z,10.36
2022-11-05T12:15:16.433Z,11.02
2022-11-05T12:17:52.871Z,11.09
2022-11-05T12:20:35.002Z,10.76
2022-11-05T12:23:23.592Z,10.52
2022-11-05T12:26:00.443Z,10.39
2022-11-05T12:29:04.464Z,10.78
2022-11-05T12:31:42.455Z,10.50
2022-11-05T12:34:26.423Z,10.42
2022-11-05T12:37:15.581Z,10.14
2022-11-05T12:39:50.846Z,10.29
2022-11-05T12:42:34.875Z,9.83
2022-11-05T12:45:08.566Z,9.63
2022-11-05T12:47:50.433Z,9.23
2022-11-05T12:50:26.065Z,9.48
2022-11-05T12:53:23.196Z,9.60
2022-11-05T12:55:52.575Z,9.63
2022-11-05T12:58:24.823Z,9.72
2022-11-05T13:00:58.754Z,9.55
2022-11-05T13:03:38.763Z,9.61
2022-11-05T13:06:10.075Z,9.56
2022-11-05T13:08:42.380Z,9.42
2022-11-05T13:11:18.285Z,9.33
2022-11-05T13:13:53.095Z,9.42
2022-11-05T13:16:26.876Z,9.43
2022-11-05T13:19:01.326Z,9.30
2022-11-05T13:21:31.160Z,9.38
2022-11-05T13:24:05.154Z,9.30
2022-11-05T13:26:40.938Z,9.12
2022-11-05T13:29:14.886Z,9.03
2022-11-05T13:31:46.504Z,8.99
2022-11-05T13:34:15.588Z,8.89
2022-11-05T13:37:15.173Z,8.79
2022-11-05T13:39:47.046Z,8.84
2022-11-05T13:42:45.313Z,8.75
2022-11-05T13:45:34.800Z,8.77
2022-11-05T13:48:38.318Z,8.56
2022-11-05T13:51:39.302Z,8.78
2022-11-05T13:54:46.909Z,8.71
2022-11-05T13:57:35.917Z,8.69
2022-11-05T14:00:12.434Z,8.66
2022-11-05T14:02:45.108Z,8.55
2022-11-05T14:05:25.303Z,8.39
2022-11-05T14:07:55.633Z,8.39
2022-11-05T14:10:32.292Z,8.22
2022-11-05T14:13:03.532Z,8.12
2022-11-05T14:15:32.943Z,8.44
2022-11-05T14:18:03.088Z,8.65
2022-11-05T14:20:57.349Z,8.71
2022-11-05T14:23:39.162Z,8.83
2022-11-05T14:26:19.139Z,8.90
2022-11-05T14:29:20.323Z,8.87
2022-11-05T14:32:12.850Z,9.07
2022-11-05T14:34:54.803Z,9.16
2022-11-05T14:37:28.499Z,9.40
2022-11-05T14:40:02.816Z,9.38
2022-11-05T14:42:32.292Z,9.34
2022-11-05T14:45:04.457Z,9.16
2022-11-05T14:47:33.846Z,9.25
2022-11-05T14:50:11.554Z,9.02
2022-11-05T14:52:41.417Z,8.94
2022-11-05T14:55:28.156Z,8.88
2022-11-05T14:58:12.942Z,8.82
2022-11-05T15:00:47.943Z,8.81
2022-11-05T15:03:41.079Z,8.66
2022-11-05T15:06:27.630Z,8.74
2022-11-05T15:09:04.914Z,8.85
2022-11-05T15:11:38.934Z,8.92
2022-11-05T15:14:17.786Z,8.96
2022-11-05T15:16:49.939Z,8.78
2022-11-05T15:19:18.818Z,8.68
2022-11-05T15:21:46.872Z,8.65
2022-11-05T15:24:17.665Z,8.38
2022-11-05T15:26:51.070Z,8.40
2022-11-05T15:29:21.546Z,8.49
2022-11-05T15:31:49.974Z,8.44
2022-11-05T15:34:20.995Z,8.52
2022-11-05T15:36:54.907Z,8.52
2022-11-05T15:39:30.125Z,8.52
2022-11-05T15:42:02.342Z,8.30
2022-11-05T15:44:32.998Z,8.28
2022-11-05T15:47:20.123Z,7.87
2022-11-05T15:49:50.104Z,7.91
2022-11-05T15:52:20.668Z,7.96
2022-11-05T15:55:07.957Z,8.08
2022-11-05T15:57:40.298Z,8.14
2022-11-05T16:00:17.511Z,8.00
2022-11-05T16:02:53.582Z,7.92
2022-11-05T16:05:22.004Z,7.88
2022-11-05T16:07:50.153Z,7.75
2022-11-05T16:10:20.274Z,7.82
2022-11-05T16:12:49.530Z,7.13
2022-11-05T16:15:24.325Z,7.78
2022-11-05T16:17:55.979Z,7.74
2022-11-05T16:20:34.728Z,7.50
2022-11-05T16:23:04.870Z,7.40
2022-11-05T16:25:43.893Z,7.56
2022-11-05T16:28:23.518Z,7.43
2022-11-05T16:30:56.886Z,7.29
2022-11-05T16:33:25.868Z,7.49
2022-11-05T16:35:53.922Z,7.25
2022-11-05T16:38:21.999Z,7.41
2022-11-05T16:40:50.004Z,7.52
2022-11-05T16:43:20.266Z,7.37
2022-11-05T16:45:49.852Z,7.36
2022-11-05T16:48:17.731Z,7.39
2022-11-05T16:50:46.872Z,7.36
2022-11-05T16:53:14.940Z,7.19
2022-11-05T16:55:44.840Z,7.31
2022-11-05T16:58:20.655Z,7.06
2022-11-05T17:00:51.898Z,7.16
2022-11-05T17:03:20.207Z,7.06
2022-11-05T17:05:48.273Z,7.25
2022-11-05T17:08:16.155Z,7.32
2022-11-05T17:10:44.057Z,7.30
2022-11-05T17:13:15.268Z,7.32
2022-11-05T17:15:44.199Z,7.25
2022-11-05T17:18:18.185Z,7.17
2022-11-05T17:20:48.093Z,7.06
2022-11-05T17:23:17.506Z,7.15
2022-11-05T17:25:47.907Z,7.03
2022-11-05T17:28:17.245Z,6.81
2022-11-05T17:30:51.988Z,6.86
2022-11-05T17:33:22.616Z,6.80
2022-11-05T17:35:50.835Z,6.57
2022-11-05T17:38:18.987Z,6.80
2022-11-05T17:40:47.075Z,6.69
2022-11-05T17:43:15.953Z,6.63
2022-11-05T17:45:45.223Z,6.66
2022-11-05T17:48:13.368Z,6.69
2022-11-05T17:50:43.289Z,6.70
2022-11-05T17:53:11.641Z,6.72
2022-11-05T17:55:41.726Z,6.81
2022-11-05T17:58:09.612Z,6.83
2022-11-05T18:00:37.569Z,6.85
2022-11-05T18:03:06.177Z,6.98
2022-11-05T18:05:35.092Z,6.93
2022-11-05T18:08:05.023Z,6.97
2022-11-05T18:10:33.324Z,7.06
2022-11-05T18:13:01.018Z,7.14
2022-11-05T18:15:28.735Z,7.10
2022-11-05T18:17:56.439Z,7.17
2022-11-05T18:20:24.268Z,7.13
2022-11-05T18:22:52.544Z,6.94
2022-11-05T18:25:21.644Z,7.25
2022-11-05T18:27:49.308Z,7.31
2022-11-05T18:30:17.033Z,7.37
2022-11-05T18:32:45.368Z,7.37
2022-11-05T18:35:14.486Z,7.47
2022-11-05T18:37:42.368Z,7.55
2022-11-05T18:40:11.176Z,7.52
2022-11-05T18:42:40.427Z,7.58
2022-11-05T18:45:09.626Z,7.59
2022-11-05T18:47:37.565Z,7.57
2022-11-05T18:50:06.286Z,7.59
2022-11-05T18:52:34.024Z,7.62
2022-11-05T18:55:01.703Z,7.65
2022-11-05T18:57:29.434Z,7.57
2022-11-05T18:59:58.441Z,7.48
2022-11-05T19:02:26.673Z,7.34
2022-11-05T19:05:26.869Z,7.24
2022-11-05T19:07:42.223Z,6.88
2022-11-05T19:10:10.754Z,6.87
2022-11-05T19:12:38.488Z,6.76
2022-11-05T19:15:09.118Z,6.61
2022-11-05T19:17:37.341Z,6.82
2022-11-05T19:20:06.775Z,6.62
2022-11-05T19:22:34.498Z,6.57
2022-11-05T19:25:02.287Z,6.36
2022-11-05T19:27:30.254Z,6.48
2022-11-05T19:29:58.206Z,6.27
2022-11-05T19:32:27.684Z,6.30
2022-11-05T19:34:55.371Z,6.16
2022-11-05T19:37:23.125Z,5.86
2022-11-05T19:39:50.808Z,5.94
2022-11-05T19:42:18.675Z,6.08
2022-11-05T19:44:46.412Z,6.09
2022-11-05T19:47:14.132Z,5.98
2022-11-05T19:49:43.218Z,5.99
2022-11-05T19:52:11.003Z,5.94
2022-11-05T19:54:38.800Z,5.88
2022-11-05T19:57:06.696Z,5.83
2022-11-05T19:59:34.489Z,5.83
2022-11-05T20:02:02.300Z,5.79
2022-11-05T20:04:30.228Z,5.72
2022-11-05T20:06:59.763Z,5.86
2022-11-05T20:09:27.738Z,5.92
2022-11-05T20:11:56.287Z,5.72
2022-11-05T20:14:25.371Z,5.75
2022-11-05T20:16:53.664Z,5.73
2022-11-05T20:19:23.009Z,5.67
2022-11-05T20:21:50.986Z,5.48
2022-11-05T20:24:25.249Z,5.60
2022-11-05T20:26:53.819Z,5.57
2022-11-05T20:29:22.440Z,5.58
2022-11-05T20:31:51.157Z,5.53
2022-11-05T20:34:19.021Z,5.56
2022-11-05T20:36:46.823Z,5.54
2022-11-05T20:39:14.630Z,5.43
2022-11-05T20:41:43.855Z,5.31
2022-11-05T20:44:11.780Z,5.47
2022-11-05T20:46:39.797Z,5.47
2022-11-05T20:49:07.756Z,5.34
2022-11-05T20:51:35.681Z,5.56
2022-11-05T20:54:03.853Z,5.33
2022-11-05T20:56:34.709Z,5.44
2022-11-05T20:59:04.044Z,5.21
2022-11-05T21:01:34.174Z,5.35
2022-11-05T21:04:02.878Z,5.57
2022-11-05T21:06:30.937Z,5.48
2022-11-05T21:08:58.797Z,5.43
2022-11-05T21:11:26.490Z,5.52
2022-11-05T21:13:54.740Z,5.31
2022-11-05T21:16:23.846Z,5.35
2022-11-05T21:18:51.564Z,5.16
2022-11-05T21:21:21.416Z,5.19
2022-11-05T21:23:49.219Z,5.26
2022-11-05T21:26:18.646Z,5.18
2022-11-05T21:28:46.613Z,5.31
2022-11-05T21:31:14.476Z,5.29
2022-11-05T21:33:43.624Z,5.25
2022-11-05T21:36:13.948Z,5.03
2022-11-05T21:38:42.221Z,5.17
2022-11-05T21:41:11.607Z,5.23
2022-11-05T21:43:41.637Z,5.18
2022-11-05T21:46:09.681Z,5.11
2022-11-05T21:48:37.597Z,5.07
2022-11-05T21:51:24.291Z,5.05
2022-11-05T21:54:09.528Z,4.96
2022-11-05T21:56:54.920Z,4.84
2022-11-05T21:59:50.241Z,5.03
2022-11-05T22:02:20.572Z,4.81
2022-11-05T22:04:50.320Z,4.65
2022-11-05T22:07:21.774Z,4.64
2022-11-05T22:09:49.621Z,4.75
2022-11-05T22:12:17.471Z,4.78
2022-11-05T22:14:45.287Z,4.61
2022-11-05T22:17:14.170Z,4.77
2022-11-05T22:19:41.828Z,4.79
2022-11-05T22:22:09.788Z,4.77
2022-11-05T22:24:39.303Z,4.62
2022-11-05T22:27:09.153Z,4.59
2022-11-05T22:29:37.647Z,4.36
2022-11-05T22:32:06.469Z,4.41
2022-11-05T22:34:34.425Z,4.27
2022-11-05T22:37:02.137Z,4.55
2022-11-05T22:39:29.962Z,4.49
2022-11-05T22:42:04.230Z,4.47
2022-11-05T22:44:35.296Z,4.49
2022-11-05T22:47:02.968Z,4.44
2022-11-05T22:49:30.686Z,4.27
2022-11-05T22:51:58.438Z,4.55
2022-11-05T22:54:26.279Z,4.45
2022-11-05T22:56:54.100Z,4.31
2022-11-05T22:59:23.312Z,4.30
2022-11-05T23:01:51.103Z,4.44
2022-11-05T23:04:18.904Z,4.36
2022-11-05T23:07:03.977Z,4.44
2022-11-05T23:09:51.783Z,4.40
2022-11-05T23:12:23.436Z,4.44
2022-11-05T23:14:53.036Z,4.75
2022-11-05T23:17:38.409Z,4.81
2022-11-05T23:20:25.809Z,4.78
2022-11-05T23:23:11.050Z,5.14
2022-11-05T23:25:38.734Z,4.97
2022-11-05T23:28:09.781Z,4.97
2022-11-05T23:31:04.768Z,4.92
2022-11-05T23:33:34.295Z,5.09
2022-11-05T23:36:19.470Z,5.08
2022-11-05T23:38:47.540Z,4.84
2022-11-05T23:41:32.593Z,4.82
2022-11-05T23:44:17.860Z,4.98
2022-11-05T23:47:04.335Z,4.85
2022-11-05T23:49:32.103Z,4.87
2022-11-05T23:51:59.742Z,5.09
2022-11-05T23:54:27.495Z,5.20
2022-11-05T23:56:55.196Z,5.14
2022-11-05T23:59:22.942Z,5.28
